createdAt,value
2022-10-25T00:02:22.394Z,101220.25
2022-10-25T00:04:51.799Z,101231.16
2022-10-25T00:07:23.309Z,101220.16
2022-10-25T00:09:53.371Z,101211.66
2022-10-25T00:12:22.458Z,101208.41
2022-10-25T00:14:51.099Z,101212.94
2022-10-25T00:17:21.353Z,101215.19
2022-10-25T00:19:50.071Z,101216.50
2022-10-25T00:22:19.099Z,101234.56
2022-10-25T00:24:47.927Z,101228.59
2022-10-25T00:27:16.771Z,101239.00
2022-10-25T00:29:45.906Z,101247.13
2022-10-25T00:32:16.031Z,101245.88
2022-10-25T00:34:46.211Z,101237.66
2022-10-25T00:37:15.436Z,101248.66
2022-10-25T00:39:44.354Z,101251.56
2022-10-25T00:42:20.813Z,101257.19
2022-10-25T00:44:57.017Z,101253.31
2022-10-25T00:47:39.678Z,101244.78
2022-10-25T00:50:32.594Z,101245.88
2022-10-25T00:53:10.735Z,101244.47
2022-10-25T00:55:45.856Z,101256.00
2022-10-25T00:58:18.578Z,101251.44
2022-10-25T01:00:47.293Z,101250.28
2022-10-25T01:03:20.726Z,101261.47
2022-10-25T01:05:53.706Z,101259.22
2022-10-25T01:08:23.867Z,101279.84
2022-10-25T01:10:53.193Z,101280.63
2022-10-25T01:13:21.744Z,101284.59
2022-10-25T01:16:08.964Z,101287.41
2022-10-25T01:18:45.367Z,101279.31
2022-10-25T01:21:46.972Z,101274.75
2022-10-25T01:24:59.575Z,101280.78
2022-10-25T01:28:07.338Z,101291.19
2022-10-25T01:31:28.170Z,101297.41
2022-10-25T01:34:03.266Z,101297.94
2022-10-25T01:36:46.026Z,101297.66
2022-10-25T01:39:21.598Z,101299.78
2022-10-25T01:42:07.256Z,101298.78
2022-10-25T01:44:49.689Z,101299.88
2022-10-25T01:47:27.117Z,101299.81
2022-10-25T01:50:04.915Z,101305.19
2022-10-25T01:52:35.303Z,101295.69
2022-10-25T01:55:10.327Z,101295.63
2022-10-25T01:58:08.579Z,101288.56
2022-10-25T02:00:49.947Z,101295.66
2022-10-25T02:03:30.330Z,101290.22
2022-10-25T02:06:16.379Z,101295.97
2022-10-25T02:08:55.499Z,101295.97
2022-10-25T02:11:27.206Z,101293.19
2022-10-25T02:14:08.105Z,101297.28
2022-10-25T02:16:42.244Z,101302.53
2022-10-25T02:19:18.927Z,101291.53
2022-10-25T02:21:52.817Z,101287.56
2022-10-25T02:24:27.298Z,101298.78
2022-10-25T02:26:59.790Z,101290.75
2022-10-25T02:29:34.410Z,101305.03
2022-10-25T02:32:04.975Z,101304.03
2022-10-25T02:34:35.613Z,101305.78
2022-10-25T02:37:04.139Z,101304.38
2022-10-25T02:39:34.782Z,101313.38
2022-10-25T02:42:03.652Z,101316.59
2022-10-25T02:44:32.770Z,101327.84
2022-10-25T02:47:02.470Z,101336.56
2022-10-25T02:49:31.901Z,101350.63
2022-10-25T02:52:02.698Z,101395.78
2022-10-25T02:54:31.395Z,101357.09
2022-10-25T02:57:00.261Z,101334.84
2022-10-25T02:59:29.761Z,101337.19
2022-10-25T03:01:58.439Z,101345.56
2022-10-25T03:04:27.173Z,101338.63
2022-10-25T03:06:57.833Z,101352.56
2022-10-25T03:09:27.809Z,101353.56
2022-10-25T03:11:56.682Z,101342.75
2022-10-25T03:14:27.193Z,101350.56
2022-10-25T03:16:56.929Z,101360.56
2022-10-25T03:19:25.617Z,101360.97
2022-10-25T03:21:54.543Z,101352.66
2022-10-25T03:24:24.506Z,101344.16
2022-10-25T03:26:54.552Z,101350.34
2022-10-25T03:29:23.533Z,101347.94
2022-10-25T03:31:54.073Z,101341.66
2022-10-25T03:34:23.415Z,101344.16
2022-10-25T03:36:52.457Z,101352.59
2022-10-25T03:39:20.972Z,101356.25
2022-10-25T03:41:50.621Z,101358.72
2022-10-25T03:44:20.998Z,101361.19
2022-10-25T03:46:49.965Z,101365.19
2022-10-25T03:49:18.339Z,101366.81
2022-10-25T03:51:51.105Z,101378.22
2022-10-25T03:54:25.524Z,101380.56
2022-10-25T03:56:57.168Z,101402.00
2022-10-25T03:59:28.107Z,101407.81
2022-10-25T04:01:57.060Z,101402.19
2022-10-25T04:04:27.340Z,101399.16
2022-10-25T04:06:56.426Z,101391.41
2022-10-25T04:09:27.775Z,101407.41
2022-10-25T04:11:57.412Z,101404.28
2022-10-25T04:14:30.474Z,101395.19
2022-10-25T04:16:59.514Z,101401.78
2022-10-25T04:19:28.501Z,101406.09
2022-10-25T04:21:58.109Z,101407.81
2022-10-25T04:24:28.772Z,101408.53
2022-10-25T04:26:59.034Z,101419.69
2022-10-25T04:29:29.268Z,101422.22
2022-10-25T04:31:58.994Z,101421.88
2022-10-25T04:34:28.037Z,101423.53
2022-10-25T04:36:56.559Z,101430.84
2022-10-25T04:39:26.645Z,101429.50
2022-10-25T04:41:56.794Z,101416.63
2022-10-25T04:44:25.828Z,101432.34
2022-10-25T04:46:56.173Z,101419.63
2022-10-25T04:49:25.676Z,101428.53
2022-10-25T04:51:54.340Z,101431.59
2022-10-25T04:54:23.557Z,101429.97
2022-10-25T04:56:52.091Z,101431.34
2022-10-25T04:59:20.602Z,101434.50
2022-10-25T05:01:49.392Z,101443.41
2022-10-25T05:04:20.267Z,101449.00
2022-10-25T05:06:51.284Z,101450.09
2022-10-25T05:09:19.994Z,101454.03
2022-10-25T05:11:55.002Z,101457.38
2022-10-25T05:14:23.909Z,101452.13
2022-10-25T05:16:56.549Z,101451.13
2022-10-25T05:19:28.046Z,101451.59
2022-10-25T05:21:57.979Z,101466.47
2022-10-25T05:24:28.032Z,101462.88
2022-10-25T05:26:57.716Z,101456.03
2022-10-25T05:29:27.974Z,101452.81
2022-10-25T05:31:57.584Z,101469.31
2022-10-25T05:34:30.159Z,101467.78
2022-10-25T05:37:01.553Z,101482.03
2022-10-25T05:39:31.093Z,101478.41
2022-10-25T05:42:00.252Z,101482.63
2022-10-25T05:44:29.326Z,101478.59
2022-10-25T05:46:57.970Z,101494.94
2022-10-25T05:49:28.942Z,101492.34
2022-10-25T05:51:57.488Z,101487.78
2022-10-25T05:54:26.709Z,101485.00
2022-10-25T05:56:55.234Z,101491.16
2022-10-25T05:59:24.060Z,101494.44
2022-10-25T06:01:53.880Z,101511.41
2022-10-25T06:04:24.006Z,101507.66
2022-10-25T06:06:54.172Z,101505.72
2022-10-25T06:09:30.931Z,101500.97
2022-10-25T06:12:00.289Z,101495.28
2022-10-25T06:14:29.179Z,101504.78
2022-10-25T06:16:58.834Z,101502.50
2022-10-25T06:19:27.283Z,101493.31
2022-10-25T06:21:59.888Z,101509.16
2022-10-25T06:24:30.815Z,101506.25
2022-10-25T06:27:00.003Z,101514.91
2022-10-25T06:29:29.055Z,101509.72
2022-10-25T06:31:58.420Z,101507.63
2022-10-25T06:34:26.982Z,101513.34
2022-10-25T06:36:57.579Z,101517.09
2022-10-25T06:39:26.906Z,101527.25
2022-10-25T06:41:57.215Z,101525.84
2022-10-25T06:44:27.540Z,101525.50
2022-10-25T06:47:16.305Z,101527.56
2022-10-25T06:49:45.027Z,101540.44
2022-10-25T06:52:15.403Z,101554.84
2022-10-25T06:54:43.805Z,101541.59
2022-10-25T06:57:12.486Z,101545.06
2022-10-25T06:59:42.695Z,101551.13
2022-10-25T07:02:14.027Z,101558.94
2022-10-25T07:04:42.982Z,101563.59
2022-10-25T07:07:16.304Z,101562.22
2022-10-25T07:09:46.972Z,101557.88
2022-10-25T07:12:15.936Z,101566.09
2022-10-25T07:14:44.409Z,101563.03
2022-10-25T07:17:12.829Z,101569.31
2022-10-25T07:19:41.774Z,101574.59
2022-10-25T07:22:10.516Z,101580.81
2022-10-25T07:24:39.896Z,101576.56
2022-10-25T07:27:10.798Z,101570.59
2022-10-25T07:29:39.517Z,101575.16
2022-10-25T07:32:08.377Z,101577.28
2022-10-25T07:34:38.050Z,101573.81
2022-10-25T07:37:08.437Z,101573.00
2022-10-25T07:39:37.612Z,101576.94
2022-10-25T07:42:06.726Z,101578.41
2022-10-25T07:44:37.302Z,101579.50
2022-10-25T07:47:06.244Z,101583.00
2022-10-25T07:49:39.067Z,101584.56
2022-10-25T07:52:08.421Z,101580.91
2022-10-25T07:54:37.326Z,101584.94
2022-10-25T07:57:06.795Z,101598.75
2022-10-25T07:59:36.944Z,101587.19
2022-10-25T08:02:05.825Z,101591.78
2022-10-25T08:04:34.915Z,101597.75
2022-10-25T08:07:06.659Z,101602.25
2022-10-25T08:09:39.053Z,101604.50
2022-10-25T08:12:08.121Z,101605.69
2022-10-25T08:14:41.467Z,101604.25
2022-10-25T08:17:13.680Z,101609.56
2022-10-25T08:19:43.442Z,101616.44
2022-10-25T08:22:14.090Z,101614.28
2022-10-25T08:24:42.708Z,101613.66
2022-10-25T08:27:11.220Z,101613.41
2022-10-25T08:29:43.313Z,101617.56
2022-10-25T08:32:11.869Z,101604.75
2022-10-25T08:34:40.663Z,101621.88
2022-10-25T08:37:13.327Z,101615.75
2022-10-25T08:39:41.816Z,101613.00
2022-10-25T08:42:25.102Z,101611.38
2022-10-25T08:45:05.433Z,101619.28
2022-10-25T08:47:40.391Z,101611.72
2022-10-25T08:50:18.528Z,101623.94
2022-10-25T08:52:51.496Z,101624.69
2022-10-25T08:55:31.467Z,101628.44
2022-10-25T08:58:04.644Z,101626.69
2022-10-25T09:00:41.203Z,101636.69
2022-10-25T09:03:17.292Z,101630.69
2022-10-25T09:06:02.562Z,101627.56
2022-10-25T09:08:59.931Z,101633.09
2022-10-25T09:11:48.348Z,101639.84
2022-10-25T09:14:29.727Z,101628.88
2022-10-25T09:17:09.556Z,101630.44
2022-10-25T09:19:51.982Z,101628.06
2022-10-25T09:22:27.552Z,101634.44
2022-10-25T09:25:02.992Z,101633.03
2022-10-25T09:27:37.500Z,101628.28
2022-10-25T09:30:10.431Z,101629.91
2022-10-25T09:32:44.548Z,101624.72
2022-10-25T09:35:19.735Z,101621.31
2022-10-25T09:37:54.433Z,101632.81
2022-10-25T09:40:32.355Z,101623.00
2022-10-25T09:43:08.199Z,101627.84
2022-10-25T09:45:48.379Z,101625.38
2022-10-25T09:48:29.517Z,101631.44
2022-10-25T09:51:08.177Z,101623.25
2022-10-25T09:53:42.005Z,101633.81
2022-10-25T09:56:10.771Z,101639.19
2022-10-25T09:58:42.561Z,101631.19
2022-10-25T10:01:18.532Z,101635.25
2022-10-25T10:03:53.202Z,101640.75
2022-10-25T10:06:29.951Z,101646.72
2022-10-25T10:09:03.646Z,101650.34
2022-10-25T10:11:33.967Z,101645.22
2022-10-25T10:14:11.662Z,101652.28
2022-10-25T10:16:47.022Z,101650.34
2022-10-25T10:19:20.117Z,101658.28
2022-10-25T10:21:56.968Z,101654.38
2022-10-25T10:24:30.649Z,101668.19
2022-10-25T10:27:02.225Z,101665.84
2022-10-25T10:29:36.580Z,101676.97
2022-10-25T10:32:22.957Z,101677.00
2022-10-25T10:34:57.771Z,101671.25
2022-10-25T10:37:28.237Z,101673.50
2022-10-25T10:39:59.076Z,101673.78
2022-10-25T10:42:37.069Z,101671.63
2022-10-25T10:45:18.072Z,101667.41
2022-10-25T10:47:58.609Z,101664.41
2022-10-25T10:50:32.819Z,101679.41
2022-10-25T10:53:04.553Z,101676.13
2022-10-25T10:55:37.612Z,101665.81
2022-10-25T10:58:09.313Z,101671.91
2022-10-25T11:00:39.000Z,101660.22
2022-10-25T11:03:07.546Z,101667.22
2022-10-25T11:05:41.443Z,101666.22
2022-10-25T11:08:21.144Z,101671.69
2022-10-25T11:10:49.492Z,101670.94
2022-10-25T11:13:21.360Z,101662.06
2022-10-25T11:16:37.582Z,101668.94
2022-10-25T11:19:47.856Z,101673.41
2022-10-25T11:25:33.375Z,101666.91
2022-10-25T11:28:24.975Z,101667.66
2022-10-25T11:31:06.286Z,101657.94
2022-10-25T11:33:52.591Z,101663.25
2022-10-25T11:36:39.698Z,101656.34
2022-10-25T11:39:33.717Z,101656.03
2022-10-25T11:42:17.977Z,101655.22
2022-10-25T11:45:20.043Z,101645.03
2022-10-25T11:48:09.446Z,101647.66
2022-10-25T11:50:49.271Z,101650.59
2022-10-25T11:53:40.603Z,101646.50
2022-10-25T11:56:25.825Z,101646.16
2022-10-25T11:59:05.505Z,101638.88
2022-10-25T12:01:53.444Z,101642.78
2022-10-25T12:04:53.890Z,101634.28
2022-10-25T12:07:32.491Z,101637.91
2022-10-25T12:10:16.268Z,101645.63
2022-10-25T12:12:52.067Z,101648.75
2022-10-25T12:15:25.757Z,101655.88
2022-10-25T12:17:54.847Z,101649.38
2022-10-25T12:20:28.953Z,101644.81
2022-10-25T12:23:03.453Z,101648.59
2022-10-25T12:25:39.257Z,101640.47
2022-10-25T12:28:23.244Z,101641.88
2022-10-25T12:30:59.712Z,101634.00
2022-10-25T12:33:38.165Z,101637.81
2022-10-25T12:36:15.764Z,101643.28
2022-10-25T12:38:45.376Z,101636.22
2022-10-25T12:41:24.503Z,101626.59
2022-10-25T12:44:17.635Z,101637.34
2022-10-25T12:47:08.758Z,101629.72
2022-10-25T12:50:07.739Z,101633.53
2022-10-25T12:52:38.073Z,101635.16
2022-10-25T12:55:40.478Z,101628.25
2022-10-25T12:58:34.108Z,101640.56
2022-10-25T13:01:26.111Z,101633.28
2022-10-25T13:04:23.532Z,101637.25
2022-10-25T13:06:55.201Z,101621.13
2022-10-25T13:09:27.177Z,101636.66
2022-10-25T13:12:02.631Z,101623.94
2022-10-25T13:14:36.608Z,101631.38
2022-10-25T13:18:02.634Z,101633.56
2022-10-25T13:20:51.282Z,101634.09
2022-10-25T13:23:59.713Z,101626.69
2022-10-25T13:27:14.557Z,101622.91
2022-10-25T13:30:26.162Z,101626.09
2022-10-25T13:33:33.676Z,101629.28
2022-10-25T13:36:07.240Z,101625.84
2022-10-25T13:38:40.148Z,101615.09
2022-10-25T13:41:20.789Z,101621.81
2022-10-25T13:44:26.836Z,101627.19
2022-10-25T13:46:56.877Z,101629.03
2022-10-25T13:49:35.395Z,101630.28
2022-10-25T13:52:07.370Z,101629.63
2022-10-25T13:54:51.072Z,101627.38
2022-10-25T13:57:50.920Z,101639.34
2022-10-25T14:00:57.782Z,101645.25
2022-10-25T14:03:51.256Z,101639.25
2022-10-25T14:06:32.735Z,101635.44
2022-10-25T14:09:22.211Z,101644.88
2022-10-25T14:11:56.229Z,101637.66
2022-10-25T14:14:34.198Z,101642.91
2022-10-25T14:17:17.762Z,101628.25
2022-10-25T14:19:50.217Z,101627.03
2022-10-25T14:22:31.946Z,101625.59
2022-10-25T14:25:05.035Z,101627.84
2022-10-25T14:27:36.376Z,101632.63
2022-10-25T14:30:24.269Z,101628.03
2022-10-25T14:32:56.847Z,101626.00
2022-10-25T14:35:38.745Z,101627.09
2022-10-25T14:38:21.519Z,101621.09
2022-10-25T14:40:59.378Z,101616.50
2022-10-25T14:43:35.337Z,101616.22
2022-10-25T14:46:33.024Z,101618.50
2022-10-25T14:49:27.793Z,101627.63
2022-10-25T14:52:06.298Z,101629.00
2022-10-25T14:55:07.599Z,101618.63
2022-10-25T14:57:52.018Z,101625.63
2022-10-25T15:00:36.609Z,101611.38
2022-10-25T15:03:14.165Z,101608.72
2022-10-25T15:06:07.008Z,101615.69
2022-10-25T15:12:24.591Z,101605.94
2022-10-25T15:15:19.206Z,101599.56
2022-10-25T15:18:00.869Z,101604.66
2022-10-25T15:21:04.986Z,101605.34
2022-10-25T15:23:45.436Z,101607.06
2022-10-25T15:26:44.488Z,101606.53
2022-10-25T15:29:50.193Z,101620.13
2022-10-25T15:32:26.567Z,101604.78
2022-10-25T15:34:59.081Z,101607.78
2022-10-25T15:37:49.247Z,101622.91
2022-10-25T15:40:31.427Z,101618.13
2022-10-25T15:43:29.206Z,101619.75
2022-10-25T15:46:01.696Z,101617.00
2022-10-25T15:48:41.137Z,101617.34
2022-10-25T15:51:21.655Z,101607.91
2022-10-25T15:53:52.118Z,101617.25
2022-10-25T15:56:25.403Z,101612.53
2022-10-25T15:59:14.152Z,101611.69
2022-10-25T16:01:49.161Z,101609.00
2022-10-25T16:04:44.161Z,101609.44
2022-10-25T16:07:14.510Z,101614.91
2022-10-25T16:09:57.294Z,101604.41
2022-10-25T16:12:39.246Z,101599.84
2022-10-25T16:15:16.634Z,101602.06
2022-10-25T16:17:50.368Z,101598.50
2022-10-25T16:20:26.814Z,101610.13
2022-10-25T16:22:57.217Z,101607.72
2022-10-25T16:25:33.127Z,101609.41
2022-10-25T16:28:07.704Z,101600.03
2022-10-25T16:30:43.126Z,101613.84
2022-10-25T16:33:37.207Z,101609.75
2022-10-25T16:36:18.014Z,101608.34
2022-10-25T16:38:47.983Z,101620.03
2022-10-25T16:41:45.560Z,101611.03
2022-10-25T16:44:32.393Z,101629.59
2022-10-25T16:47:08.950Z,101633.38
2022-10-25T16:49:43.263Z,101635.88
2022-10-25T16:52:12.336Z,101643.81
2022-10-25T16:54:58.457Z,101643.31
2022-10-25T16:57:35.008Z,101645.56
2022-10-25T17:00:06.365Z,101655.31
2022-10-25T17:02:38.666Z,101651.41
2022-10-25T17:05:19.932Z,101655.75
2022-10-25T17:07:49.211Z,101656.94
2022-10-25T17:10:22.873Z,101660.50
2022-10-25T17:12:53.843Z,101656.38
2022-10-25T17:15:24.051Z,101655.84
2022-10-25T17:17:54.000Z,101648.72
2022-10-25T17:20:26.208Z,101657.69
2022-10-25T17:22:57.030Z,101664.75
2022-10-25T17:25:26.095Z,101664.63
2022-10-25T17:27:55.671Z,101665.38
2022-10-25T17:30:24.406Z,101667.09
2022-10-25T17:32:54.486Z,101659.09
2022-10-25T17:35:29.675Z,101660.63
2022-10-25T17:37:58.436Z,101660.28
2022-10-25T17:40:27.698Z,101660.41
2022-10-25T17:42:56.349Z,101663.72
2022-10-25T17:45:25.408Z,101664.50
2022-10-25T17:47:54.474Z,101662.66
2022-10-25T17:50:27.295Z,101664.19
2022-10-25T17:52:57.894Z,101662.78
2022-10-25T17:55:33.113Z,101654.44
2022-10-25T17:58:06.613Z,101670.16
2022-10-25T18:00:43.218Z,101657.06
2022-10-25T18:03:13.133Z,101667.53
2022-10-25T18:05:48.512Z,101657.06
2022-10-25T18:08:19.401Z,101669.69
2022-10-25T18:10:48.854Z,101665.56
2022-10-25T18:13:25.178Z,101671.00
2022-10-25T18:15:55.645Z,101672.91
2022-10-25T18:18:25.812Z,101659.41
2022-10-25T18:21:17.082Z,101661.31
2022-10-25T18:23:50.419Z,101674.63
2022-10-25T18:26:21.269Z,101679.44
2022-10-25T18:28:55.789Z,101686.94
2022-10-25T18:31:29.258Z,101697.91
2022-10-25T18:34:00.437Z,101700.75
2022-10-25T18:36:34.659Z,101696.28
2022-10-25T18:39:04.540Z,101703.22
2022-10-25T18:41:38.130Z,101705.81
2022-10-25T18:44:15.089Z,101712.88
2022-10-25T18:46:49.292Z,101701.72
2022-10-25T18:49:19.763Z,101698.25
2022-10-25T18:51:51.453Z,101693.22
2022-10-25T18:54:20.416Z,101707.56
2022-10-25T18:56:51.778Z,101711.88
2022-10-25T18:59:23.707Z,101710.00
2022-10-25T19:02:01.422Z,101706.34
2022-10-25T19:04:32.648Z,101713.25
2022-10-25T19:07:04.519Z,101713.38
2022-10-25T19:09:34.147Z,101707.84
2022-10-25T19:12:07.760Z,101701.63
2022-10-25T19:17:42.463Z,101712.22
2022-10-25T19:20:14.584Z,101687.66
2022-10-25T19:22:47.069Z,101684.91
2022-10-25T19:25:19.112Z,101698.22
2022-10-25T19:27:50.982Z,101704.63
2022-10-25T19:30:21.149Z,101686.91
2022-10-25T19:32:50.773Z,101685.53
2022-10-25T19:35:22.816Z,101684.94
2022-10-25T19:37:56.817Z,101693.03
2022-10-25T19:40:27.584Z,101692.34
2022-10-25T19:42:57.179Z,101690.03
2022-10-25T19:45:27.595Z,101669.13
2022-10-25T19:48:00.733Z,101673.94
2022-10-25T19:50:29.857Z,101669.81
2022-10-25T19:53:06.150Z,101670.59
2022-10-25T19:55:35.499Z,101658.16
2022-10-25T19:58:07.528Z,101651.50
2022-10-25T20:00:36.732Z,101662.09
2022-10-25T20:03:06.773Z,101666.25
2022-10-25T20:05:39.106Z,101671.91
2022-10-25T20:08:09.816Z,101678.19
2022-10-25T20:10:40.613Z,101669.69
2022-10-25T20:13:11.776Z,101671.34
2022-10-25T20:15:53.008Z,101673.03
2022-10-25T20:18:24.007Z,101652.81
2022-10-25T20:21:00.722Z,101647.38
2022-10-25T20:23:32.710Z,101653.22
2022-10-25T20:26:10.269Z,101638.38
2022-10-25T20:28:39.355Z,101631.53
2022-10-25T20:31:08.433Z,101641.78
2022-10-25T20:33:39.699Z,101646.00
2022-10-25T20:36:13.742Z,101640.41
2022-10-25T20:38:47.833Z,101638.69
2022-10-25T20:41:19.031Z,101648.13
2022-10-25T20:43:54.853Z,101632.50
2022-10-25T20:46:32.065Z,101653.31
2022-10-25T20:49:03.627Z,101643.13
2022-10-25T20:51:32.123Z,101652.34
2022-10-25T20:54:05.293Z,101661.16
2022-10-25T20:56:37.132Z,101652.66
2022-10-25T20:59:06.830Z,101655.34
2022-10-25T21:01:35.247Z,101652.22
2022-10-25T21:04:06.209Z,101646.66
2022-10-25T21:06:34.582Z,101637.53
2022-10-25T21:09:05.197Z,101644.03
2022-10-25T21:11:33.938Z,101639.13
2022-10-25T21:14:02.454Z,101646.44
2022-10-25T21:16:31.482Z,101649.53
2022-10-25T21:19:04.676Z,101650.06
2022-10-25T21:21:36.525Z,101655.06
2022-10-25T21:24:08.059Z,101646.88
2022-10-25T21:26:36.795Z,101638.34
2022-10-25T21:29:09.122Z,101631.53
2022-10-25T21:31:37.916Z,101638.44
2022-10-25T21:34:06.461Z,101644.34
2022-10-25T21:36:39.009Z,101648.81
2022-10-25T21:39:13.267Z,101651.28
2022-10-25T21:41:43.476Z,101640.31
2022-10-25T21:44:12.118Z,101646.41
2022-10-25T21:46:40.947Z,101652.13
2022-10-25T21:49:11.375Z,101646.22
2022-10-25T21:51:42.218Z,101644.84
2022-10-25T21:54:13.476Z,101641.19
2022-10-25T21:56:42.930Z,101638.91
2022-10-25T21:59:12.155Z,101641.69
2022-10-25T22:01:41.232Z,101640.94
2022-10-25T22:04:11.182Z,101638.31
2022-10-25T22:06:41.016Z,101653.66
2022-10-25T22:09:11.413Z,101642.50
2022-10-25T22:11:45.037Z,101646.47
2022-10-25T22:14:15.427Z,101629.16
2022-10-25T22:16:45.888Z,101641.63
2022-10-25T22:19:19.097Z,101643.69
2022-10-25T22:21:52.353Z,101645.06
2022-10-25T22:24:24.846Z,101630.34
2022-10-25T22:26:53.569Z,101638.66
2022-10-25T22:29:22.195Z,101644.66
2022-10-25T22:31:51.409Z,101639.69
2022-10-25T22:34:20.508Z,101640.03
2022-10-25T22:36:49.149Z,101642.66
2022-10-25T22:39:17.854Z,101641.63
2022-10-25T22:41:53.719Z,101641.34
2022-10-25T22:44:23.741Z,101634.13
2022-10-25T22:46:53.975Z,101632.13
2022-10-25T22:49:24.161Z,101641.19
2022-10-25T22:51:53.403Z,101645.28
2022-10-25T22:54:22.466Z,101637.69
2022-10-25T22:56:55.782Z,101640.38
2022-10-25T22:59:27.604Z,101634.31
2022-10-25T23:01:56.325Z,101629.97
2022-10-25T23:04:26.067Z,101632.41
2022-10-25T23:06:55.055Z,101623.22
2022-10-25T23:09:24.498Z,101630.66
2022-10-25T23:11:54.823Z,101623.91
2022-10-25T23:14:25.883Z,101625.19
2022-10-25T23:16:55.014Z,101632.75
2022-10-25T23:19:23.906Z,101623.69
2022-10-25T23:21:52.590Z,101630.16
2022-10-25T23:24:21.436Z,101618.19
2022-10-25T23:26:50.258Z,101633.50
2022-10-25T23:29:20.963Z,101627.78
2022-10-25T23:31:53.018Z,101629.88
2022-10-25T23:34:25.888Z,101636.03
2022-10-25T23:36:57.579Z,101621.09
2022-10-25T23:39:31.450Z,101627.88
2022-10-25T23:42:02.604Z,101619.13
2022-10-25T23:44:32.835Z,101612.94
2022-10-25T23:47:05.812Z,101624.81
2022-10-25T23:49:36.966Z,101624.03
2022-10-25T23:52:07.658Z,101630.44
2022-10-25T23:54:36.386Z,101634.53
2022-10-25T23:57:05.077Z,101634.53
2022-10-25T23:59:36.594Z,101623.94
